Time,TemperatureF,DewpointF,PressureIn,WindDirection,WindDirectionDegrees,WindSpeedMPH,WindSpeedGustMPH,Humidity,HourlyPrecipIn,Conditions,Clouds,dailyrainin,SoftwareType,DateUTC
2013-04-07 00:00:00,33.7,32.4,29.65,NW,313,0.0,9.0,95,0.00,,,0.22,VWS V15.00,2013-04-07 05:00:00,
2013-04-07 00:02:00,33.8,32.5,29.67,WNW,301,0.0,0.0,95,0.00,,OVC013,0.00,VWS V14.01,2013-04-07 05:02:00,
2013-04-07 00:07:00,33.8,32.5,29.67,WNW,301,0.0,4.0,95,0.00,,OVC013,0.00,VWS V14.01,2013-04-07 05:07:00,
2013-04-07 00:12:00,34.0,32.7,29.67,WNW,301,3.0,9.0,95,0.00,,OVC013,0.00,VWS V14.01,2013-04-07 05:12:00,
2013-04-07 00:15:00,33.7,32.4,29.65,NW,312,6.0,7.0,95,0.00,,,0.22,VWS V15.00,2013-04-07 05:15:00,
2013-04-07 00:17:00,34.0,32.7,29.67,WNW,302,3.0,10.0,95,0.00,,OVC013,0.00,VWS V14.01,2013-04-07 05:17:00,
2013-04-07 00:23:00,34.0,32.7,29.67,WNW,303,0.0,10.0,95,0.00,,OVC013,0.00,VWS V14.01,2013-04-07 05:23:00,
2013-04-07 00:28:00,33.8,32.5,29.67,WNW,303,0.0,10.0,95,0.00,,OVC013,0.00,VWS V14.01,2013-04-07 05:28:00,
2013-04-07 00:30:00,33.8,32.5,29.66,NW,310,2.0,7.0,95,0.00,,,0.22,VWS V15.00,2013-04-07 05:30:00,
2013-04-07 00:35:00,33.8,32.3,29.67,NW,305,4.0,9.0,94,0.00,,OVC013,0.00,VWS V14.01,2013-04-07 05:35:00,
2013-04-07 00:40:00,33.7,32.4,29.67,NW,305,0.0,9.0,95,0.00,,OVC013,0.00,VWS V14.01,2013-04-07 05:40:00,
2013-04-07 00:45:00,33.7,32.4,29.68,NW,305,0.0,9.0,95,0.00,,OVC013,0.00,VWS V14.01,2013-04-07 05:45:00,
2013-04-07 00:51:00,33.7,32.4,29.68,NW,305,1.0,6.0,95,0.00,,OVC013,0.00,VWS V14.01,2013-04-07 05:51:00,
2013-04-07 00:56:00,33.7,32.4,29.68,NW,304,4.0,6.0,95,0.00,,OVC013,0.00,VWS V14.01,2013-04-07 05:56:00,
2013-04-07 01:00:00,34.0,32.7,29.67,WNW,301,0.0,9.0,95,0.00,,,0.22,VWS V15.00,2013-04-07 06:00:00,
2013-04-07 01:01:00,33.7,32.4,29.68,NW,305,4.0,5.0,95,0.00,,OVC015,0.00,VWS V14.01,2013-04-07 06:01:00,
2013-04-07 01:06:00,33.7,32.4,29.68,NW,305,5.0,6.0,95,0.00,,OVC015,0.00,VWS V14.01,2013-04-07 06:06:00,
2013-04-07 01:11:00,33.7,32.4,29.68,WNW,303,0.0,6.0,95,0.00,,OVC015,0.00,VWS V14.01,2013-04-07 06:11:00,
2013-04-07 01:15:00,34.0,32.7,29.67,WNW,301,0.0,9.0,95,0.00,,OVC016,0.00,VWS V15.00,2013-04-07 06:15:00,
2013-04-07 01:17:00,33.7,32.4,29.69,WNW,303,5.0,9.0,95,0.00,,OVC015,0.00,VWS V14.01,2013-04-07 06:17:00,
2013-04-07 01:22:00,33.7,32.4,29.69,WNW,303,0.0,9.0,95,0.00,,OVC015,0.00,VWS V14.01,2013-04-07 06:22:00,
2013-04-07 01:27:00,33.8,32.5,29.69,WNW,303,4.0,9.0,95,0.00,,OVC015,0.00,VWS V14.01,2013-04-07 06:27:00,
2013-04-07 01:30:00,33.8,32.3,29.67,WNW,303,0.0,10.0,94,0.00,,,0.00,VWS V15.00,2013-04-07 06:30:00,
2013-04-07 01:33:00,34.0,32.7,29.69,WNW,303,5.0,6.0,95,0.00,,OVC015,0.00,VWS V14.01,2013-04-07 06:33:00,
2013-04-07 01:38:00,34.0,32.7,29.69,WNW,303,5.0,6.0,95,0.00,,OVC015,0.00,VWS V14.01,2013-04-07 06:38:00,
2013-04-07 01:45:00,34.0,32.7,29.70,WNW,302,0.0,7.0,95,0.00,,OVC015,0.00,VWS V14.01,2013-04-07 06:45:00,
2013-04-07 01:50:00,34.0,32.7,29.70,WNW,300,7.0,9.0,95,0.00,,OVC015,0.00,VWS V14.01,2013-04-07 06:50:00,
2013-04-07 01:56:00,34.0,32.7,29.70,WNW,300,2.0,9.0,95,0.00,,OVC015,0.00,VWS V14.01,2013-04-07 06:56:00,
2013-04-07 02:00:00,33.7,32.4,29.68,NW,305,0.0,6.0,95,0.00,,,0.00,VWS V15.00,2013-04-07 07:00:00,
2013-04-07 02:02:00,34.1,32.6,29.70,WNW,300,5.0,6.0,94,0.00,,OVC015,0.00,VWS V14.01,2013-04-07 07:02:00,
2013-04-07 02:07:00,34.1,32.6,29.70,WNW,300,6.0,6.0,94,0.00,,OVC015,0.00,VWS V14.01,2013-04-07 07:07:00,
2013-04-07 02:12:00,34.0,32.5,29.70,WNW,300,6.0,9.0,94,0.00,,OVC015,0.00,VWS V14.01,2013-04-07 07:12:00,
2013-04-07 02:15:00,33.7,32.4,29.69,WNW,303,5.0,7.0,95,0.00,,,0.00,VWS V15.00,2013-04-07 07:15:00,
2013-04-07 02:17:00,34.0,32.5,29.70,WNW,299,3.0,9.0,94,0.00,,OVC015,0.00,VWS V14.01,2013-04-07 07:17:00,
2013-04-07 02:22:00,34.1,32.6,29.70,WNW,302,4.0,9.0,94,0.00,,OVC015,0.00,VWS V14.01,2013-04-07 07:22:00,
2013-04-07 02:27:00,34.0,32.5,29.70,NW,305,9.0,11.0,94,0.00,,OVC015,0.00,VWS V14.01,2013-04-07 07:27:00,
2013-04-07 02:30:00,33.8,32.5,29.69,WNW,303,0.0,9.0,95,0.00,,,0.00,VWS V15.00,2013-04-07 07:30:00,
2013-04-07 02:33:00,34.0,32.5,29.70,NW,307,0.0,5.0,94,0.00,,OVC015,0.00,VWS V14.01,2013-04-07 07:33:00,
2013-04-07 02:38:00,34.0,32.5,29.70,NW,308,0.0,8.0,94,0.00,,OVC015,0.00,VWS V14.01,2013-04-07 07:38:00,
2013-04-07 02:45:00,34.1,32.6,29.70,NW,307,0.0,8.0,94,0.00,,OVC011,0.00,VWS V14.01,2013-04-07 07:45:00,
2013-04-07 02:50:00,34.1,32.6,29.70,NW,308,5.0,7.0,94,0.00,,OVC011,0.00,VWS V14.01,2013-04-07 07:50:00,
2013-04-07 02:55:00,34.1,32.6,29.70,NW,305,0.0,10.0,94,0.00,,OVC011,0.00,VWS V14.01,2013-04-07 07:55:00,
2013-04-07 03:00:00,34.0,32.5,29.70,WNW,300,5.0,9.0,94,0.00,,OVC043,0.00,VWS V15.00,2013-04-07 08:00:00,
2013-04-07 03:02:00,34.0,32.5,29.70,NW,304,0.0,7.0,94,0.00,,OVC009,0.00,VWS V14.01,2013-04-07 08:02:00,
2013-04-07 03:07:00,34.0,32.5,29.70,NW,310,0.0,10.0,94,0.00,,OVC009,0.00,VWS V14.01,2013-04-07 08:07:00,
2013-04-07 03:12:00,34.0,32.5,29.70,NW,310,6.0,10.0,94,0.00,,OVC009,0.00,VWS V14.01,2013-04-07 08:12:00,
2013-04-07 03:15:00,34.0,32.5,29.70,WNW,299,0.0,9.0,94,0.00,,OVC043,0.00,VWS V15.00,2013-04-07 08:15:00,
2013-04-07 03:17:00,34.1,32.6,29.70,NW,310,0.0,6.0,94,0.00,,OVC009,0.00,VWS V14.01,2013-04-07 08:17:00,
2013-04-07 03:22:00,34.1,32.6,29.70,NW,308,4.0,8.0,94,0.00,,OVC009,0.00,VWS V14.01,2013-04-07 08:22:00,
2013-04-07 03:27:00,34.1,32.6,29.70,NW,305,0.0,11.0,94,0.00,,OVC009,0.00,VWS V14.01,2013-04-07 08:27:00,
2013-04-07 03:30:00,34.0,32.5,29.70,NW,307,0.0,11.0,94,0.00,,OVC043,0.00,VWS V15.00,2013-04-07 08:30:00,
2013-04-07 03:33:00,34.1,32.3,29.70,NW,305,5.0,9.0,93,0.00,,OVC009,0.00,VWS V14.01,2013-04-07 08:33:00,
2013-04-07 03:38:00,34.0,32.2,29.70,WNW,303,0.0,9.0,93,0.00,,OVC009,0.00,VWS V14.01,2013-04-07 08:38:00,
2013-04-07 03:44:00,34.0,32.2,29.70,WNW,303,4.0,9.0,93,0.00,,OVC009,0.00,VWS V14.01,2013-04-07 08:44:00,
2013-04-07 03:45:00,34.1,32.6,29.70,NW,307,0.0,8.0,94,0.00,,OVC043,0.00,VWS V15.00,2013-04-07 08:45:00,
2013-04-07 03:49:00,34.0,32.2,29.71,NW,304,6.0,7.0,93,0.00,,OVC009,0.00,VWS V14.01,2013-04-07 08:49:00,
2013-04-07 03:54:00,34.0,32.2,29.71,NW,304,0.0,8.0,93,0.00,,OVC009,0.00,VWS V14.01,2013-04-07 08:54:00,
2013-04-07 03:59:00,34.0,32.2,29.71,WNW,303,0.0,8.0,93,0.00,,OVC009,0.00,VWS V14.01,2013-04-07 08:59:00,
2013-04-07 04:00:00,34.0,32.5,29.70,WNW,300,5.0,9.0,94,0.00,,,0.00,VWS V15.00,2013-04-07 09:00:00,
2013-04-07 04:04:00,33.8,32.0,29.72,WNW,302,0.0,6.0,93,0.00,,OVC014,0.00,VWS V14.01,2013-04-07 09:04:00,
2013-04-07 04:09:00,33.8,32.0,29.72,WNW,302,5.0,8.0,93,0.00,,OVC014,0.00,VWS V14.01,2013-04-07 09:09:00,
2013-04-07 04:15:00,33.8,32.0,29.72,WNW,301,5.0,8.0,93,0.00,,OVC014,0.00,VWS V14.01,2013-04-07 09:15:00,
2013-04-07 04:20:00,33.8,32.0,29.72,WNW,301,0.0,5.0,93,0.00,,OVC014,0.00,VWS V14.01,2013-04-07 09:20:00,
2013-04-07 04:25:00,33.7,31.9,29.72,WNW,301,0.0,6.0,93,0.00,,OVC014,0.00,VWS V14.01,2013-04-07 09:25:00,
2013-04-07 04:30:00,34.0,32.5,29.70,NW,307,0.0,11.0,94,0.00,,,0.00,VWS V15.00,2013-04-07 09:30:00,
2013-04-07 04:32:00,33.7,31.9,29.72,WNW,301,0.0,3.0,93,0.00,,OVC014,0.00,VWS V14.01,2013-04-07 09:32:00,
2013-04-07 04:37:00,33.7,31.9,29.72,WNW,301,0.0,4.0,93,0.00,,OVC014,0.00,VWS V14.01,2013-04-07 09:37:00,
2013-04-07 04:43:00,33.7,31.9,29.72,WNW,301,0.0,4.0,93,0.00,,OVC013,0.00,VWS V14.01,2013-04-07 09:43:00,
2013-04-07 04:45:00,34.1,32.6,29.70,NW,307,0.0,8.0,94,0.00,,,0.00,VWS V15.00,2013-04-07 09:45:00,
2013-04-07 04:48:00,33.7,31.9,29.73,WNW,301,0.0,7.0,93,0.00,,OVC013,0.00,VWS V14.01,2013-04-07 09:48:00,
2013-04-07 04:53:00,33.7,31.9,29.73,WNW,301,0.0,7.0,93,0.00,,OVC013,0.00,VWS V14.01,2013-04-07 09:53:00,
2013-04-07 04:58:00,33.7,31.9,29.73,WNW,301,0.0,7.0,93,0.00,,OVC013,0.00,VWS V14.01,2013-04-07 09:58:00,
2013-04-07 05:00:00,34.1,32.6,29.70,NW,304,4.0,10.0,94,0.00,,,0.00,VWS V15.00,2013-04-07 10:00:00,
2013-04-07 05:03:00,33.7,31.9,29.74,WNW,301,0.0,4.0,93,0.00,,OVC017,0.00,VWS V14.01,2013-04-07 10:03:00,
2013-04-07 05:09:00,33.7,31.9,29.74,WNW,301,0.0,4.0,93,0.00,,OVC017,0.00,VWS V14.01,2013-04-07 10:09:00,
2013-04-07 05:14:00,33.7,31.9,29.74,WNW,301,0.0,6.0,93,0.00,,OVC017,0.00,VWS V14.01,2013-04-07 10:14:00,
2013-04-07 05:15:00,34.1,32.6,29.70,NW,310,0.0,10.0,94,0.00,,,0.00,VWS V15.00,2013-04-07 10:15:00,
2013-04-07 05:19:00,33.7,31.9,29.75,WNW,301,0.0,7.0,93,0.00,,OVC017,0.00,VWS V14.01,2013-04-07 10:19:00,
2013-04-07 05:25:00,33.7,31.9,29.75,WNW,301,0.0,7.0,93,0.00,,OVC017,0.00,VWS V14.01,2013-04-07 10:25:00,
2013-04-07 05:30:00,33.7,31.9,29.76,WNW,301,0.0,7.0,93,0.00,,OVC017,0.00,VWS V14.01,2013-04-07 10:30:00,
2013-04-07 05:35:00,33.5,31.7,29.76,WNW,301,0.0,0.0,93,0.00,,OVC017,0.00,VWS V14.01,2013-04-07 10:35:00,
2013-04-07 05:41:00,33.5,31.7,29.76,WNW,301,0.0,0.0,93,0.00,,OVC017,0.00,VWS V14.01,2013-04-07 10:41:00,
2013-04-07 05:45:00,34.0,32.2,29.71,WNW,303,0.0,9.0,93,0.00,,,0.00,VWS V15.00,2013-04-07 10:45:00,
2013-04-07 05:47:00,33.5,31.7,29.76,WNW,301,0.0,0.0,93,0.00,,OVC017,0.00,VWS V14.01,2013-04-07 10:47:00,
2013-04-07 05:53:00,33.5,31.7,29.76,WNW,301,0.0,0.0,93,0.00,,OVC017,0.00,VWS V14.01,2013-04-07 10:53:00,
2013-04-07 05:58:00,33.5,31.7,29.76,WNW,301,0.0,0.0,93,0.00,,OVC017,0.00,VWS V14.01,2013-04-07 10:58:00,
2013-04-07 06:00:00,33.8,32.0,29.72,WNW,302,6.0,9.0,93,0.00,,,0.00,VWS V15.00,2013-04-07 11:00:00,
2013-04-07 06:05:00,33.5,31.7,29.77,WNW,301,0.0,0.0,93,0.00,,OVC015,0.00,VWS V14.01,2013-04-07 11:05:00,
2013-04-07 06:10:00,33.5,31.7,29.77,WNW,301,0.0,0.0,93,0.00,,OVC015,0.00,VWS V14.01,2013-04-07 11:10:00,
2013-04-07 06:15:00,33.8,32.0,29.72,WNW,301,4.0,8.0,93,0.00,,,0.00,VWS V15.00,2013-04-07 11:15:00,
2013-04-07 06:17:00,33.5,31.7,29.78,WNW,301,0.0,0.0,93,0.00,,OVC015,0.00,VWS V14.01,2013-04-07 11:17:00,
2013-04-07 06:22:00,33.5,31.7,29.78,WNW,301,0.0,0.0,93,0.00,,OVC015,0.00,VWS V14.01,2013-04-07 11:22:00,
2013-04-07 06:27:00,33.5,31.7,29.78,WNW,301,0.0,0.0,93,0.00,,OVC015,0.00,VWS V14.01,2013-04-07 11:27:00,
2013-04-07 06:30:00,33.7,31.9,29.72,WNW,301,3.0,7.0,93,0.00,,,0.00,VWS V15.00,2013-04-07 11:30:00,
2013-04-07 06:33:00,33.5,31.7,29.78,WNW,301,0.0,0.0,93,0.00,,OVC015,0.00,VWS V14.01,2013-04-07 11:33:00,
2013-04-07 06:38:00,33.4,31.6,29.78,WNW,301,0.0,0.0,93,0.00,,OVC015,0.00,VWS V14.01,2013-04-07 11:38:00,
2013-04-07 06:43:00,33.4,31.3,29.78,WNW,301,0.0,0.0,92,0.00,,OVC013,0.00,VWS V14.01,2013-04-07 11:43:00,
2013-04-07 06:45:00,33.7,31.9,29.73,WNW,301,0.0,4.0,93,0.00,,,0.00,VWS V15.00,2013-04-07 11:45:00,
2013-04-07 06:49:00,33.4,31.6,29.79,WNW,301,0.0,0.0,93,0.00,,OVC013,0.00,VWS V14.01,2013-04-07 11:49:00,
2013-04-07 06:56:00,33.4,31.3,29.79,WNW,301,0.0,0.0,92,0.00,,OVC013,0.00,VWS V14.01,2013-04-07 11:56:00,
2013-04-07 07:00:00,33.7,31.9,29.74,WNW,301,0.0,7.0,93,0.00,,,0.00,VWS V15.00,2013-04-07 12:00:00,
2013-04-07 07:02:00,33.4,31.3,29.80,WNW,301,0.0,0.0,92,0.00,,OVC015,0.00,VWS V14.01,2013-04-07 12:02:00,
2013-04-07 07:07:00,33.4,31.3,29.80,WNW,301,0.0,0.0,92,0.00,,OVC015,0.00,VWS V14.01,2013-04-07 12:07:00,
2013-04-07 07:12:00,33.4,31.3,29.80,WNW,301,0.0,0.0,92,0.00,,OVC015,0.00,VWS V14.01,2013-04-07 12:12:00,
2013-04-07 07:15:00,33.7,31.9,29.75,WNW,301,4.0,6.0,93,0.00,,,0.00,VWS V15.00,2013-04-07 12:15:00,
2013-04-07 07:17:00,33.4,31.3,29.80,WNW,301,0.0,0.0,92,0.00,,OVC015,0.00,VWS V14.01,2013-04-07 12:17:00,
2013-04-07 07:23:00,33.4,31.3,29.80,WNW,301,0.0,0.0,92,0.00,,OVC015,0.00,VWS V14.01,2013-04-07 12:23:00,
2013-04-07 07:28:00,33.4,31.3,29.80,WNW,301,0.0,3.0,92,0.00,,OVC015,0.00,VWS V14.01,2013-04-07 12:28:00,
2013-04-07 07:30:00,33.7,31.9,29.76,WNW,301,0.0,7.0,93,0.00,,,0.00,VWS V15.00,2013-04-07 12:30:00,
2013-04-07 07:35:00,33.5,31.4,29.80,WNW,301,0.0,0.0,92,0.00,,OVC015,0.00,VWS V14.01,2013-04-07 12:35:00,
2013-04-07 07:40:00,33.7,31.6,29.80,WNW,301,0.0,0.0,92,0.00,,OVC017,0.00,VWS V14.01,2013-04-07 12:40:00,
2013-04-07 07:45:00,33.8,31.7,29.81,WNW,301,0.0,0.0,92,0.00,,OVC017,0.00,VWS V14.01,2013-04-07 12:45:00,
2013-04-07 07:50:00,33.8,31.7,29.81,WNW,301,0.0,0.0,92,0.00,,OVC017,0.00,VWS V14.01,2013-04-07 12:50:00,
2013-04-07 07:55:00,33.8,31.7,29.81,WNW,301,0.0,0.0,92,0.00,,OVC017,0.00,VWS V14.01,2013-04-07 12:55:00,
2013-04-07 08:00:00,33.5,31.7,29.77,WNW,301,0.0,0.0,93,0.00,,,0.00,VWS V15.00,2013-04-07 13:00:00,
2013-04-07 08:01:00,34.0,31.9,29.81,WNW,301,0.0,0.0,92,0.00,,OVC017,0.00,VWS V14.01,2013-04-07 13:01:00,
2013-04-07 08:06:00,34.1,32.0,29.81,WNW,301,0.0,3.0,92,0.00,,OVC017,0.00,VWS V14.01,2013-04-07 13:06:00,
2013-04-07 08:11:00,34.1,32.0,29.81,WNW,301,0.0,3.0,92,0.00,,OVC017,0.00,VWS V14.01,2013-04-07 13:11:00,
2013-04-07 08:15:00,33.5,31.7,29.78,WNW,301,0.0,0.0,93,0.00,,,0.00,VWS V15.00,2013-04-07 13:15:00,
2013-04-07 08:16:00,34.1,31.8,29.82,WNW,301,0.0,0.0,91,0.00,,OVC017,0.00,VWS V14.01,2013-04-07 13:16:00,
2013-04-07 08:22:00,34.1,31.8,29.82,WNW,301,0.0,0.0,91,0.00,,OVC017,0.00,VWS V14.01,2013-04-07 13:22:00,
2013-04-07 08:27:00,34.3,32.0,29.82,WNW,301,0.0,0.0,91,0.00,,OVC017,0.00,VWS V14.01,2013-04-07 13:27:00,
2013-04-07 08:30:00,33.5,31.7,29.78,WNW,301,0.0,0.0,93,0.00,,,0.00,VWS V15.00,2013-04-07 13:30:00,
2013-04-07 08:32:00,34.3,32.0,29.82,WNW,301,0.0,0.0,91,0.00,,OVC017,0.00,VWS V14.01,2013-04-07 13:32:00,
2013-04-07 08:37:00,34.4,32.0,29.82,WNW,301,0.0,0.0,91,0.00,,OVC017,0.00,VWS V14.01,2013-04-07 13:37:00,
2013-04-07 08:43:00,34.6,32.2,29.82,WNW,301,0.0,0.0,91,0.00,,OVC015,0.00,VWS V14.01,2013-04-07 13:43:00,
2013-04-07 08:45:00,33.4,31.3,29.79,WNW,301,0.0,0.0,92,0.00,,,0.00,VWS V15.00,2013-04-07 13:45:00,
2013-04-07 08:48:00,34.6,32.2,29.83,WNW,301,0.0,0.0,91,0.00,,OVC015,0.00,VWS V14.01,2013-04-07 13:48:00,
2013-04-07 08:53:00,34.6,32.0,29.83,WNW,301,0.0,0.0,90,0.00,,OVC015,0.00,VWS V14.01,2013-04-07 13:53:00,
2013-04-07 09:00:00,34.7,31.8,29.84,WNW,301,0.0,0.0,89,0.00,,OVC015,0.00,VWS V14.01,2013-04-07 14:00:00,
2013-04-07 09:05:00,34.7,31.8,29.84,WNW,301,0.0,0.0,89,0.00,,OVC017,0.00,VWS V14.01,2013-04-07 14:05:00,
2013-04-07 09:10:00,34.7,31.8,29.84,WNW,301,0.0,0.0,89,0.00,,OVC017,0.00,VWS V14.01,2013-04-07 14:10:00,
2013-04-07 09:15:00,34.9,32.0,29.84,WNW,301,0.0,0.0,89,0.00,,OVC017,0.00,VWS V14.01,2013-04-07 14:15:00,
2013-04-07 09:21:00,35.0,32.1,29.84,WNW,301,0.0,0.0,89,0.00,,OVC017,0.00,VWS V14.01,2013-04-07 14:21:00,
2013-04-07 09:26:00,35.2,32.0,29.84,WNW,301,0.0,0.0,88,0.00,,OVC017,0.00,VWS V14.01,2013-04-07 14:26:00,
2013-04-07 09:30:00,33.5,31.4,29.80,WNW,301,0.0,3.0,92,0.00,,,0.00,VWS V15.00,2013-04-07 14:30:00,
2013-04-07 09:31:00,35.2,32.0,29.84,WNW,301,0.0,0.0,88,0.00,,OVC017,0.00,VWS V14.01,2013-04-07 14:31:00,
2013-04-07 09:38:00,35.5,32.3,29.84,WNW,301,0.0,0.0,88,0.00,,OVC017,0.00,VWS V14.01,2013-04-07 14:38:00,
2013-04-07 09:43:00,35.5,32.0,29.84,WNW,301,0.0,0.0,87,0.00,,OVC019,0.00,VWS V14.01,2013-04-07 14:43:00,
2013-04-07 09:45:00,33.8,31.7,29.81,WNW,301,0.0,0.0,92,0.00,,,0.00,VWS V15.00,2013-04-07 14:45:00,
2013-04-07 09:48:00,35.6,31.8,29.84,WNW,301,0.0,0.0,86,0.00,,OVC019,0.00,VWS V14.01,2013-04-07 14:48:00,
2013-04-07 09:55:00,35.9,32.1,29.84,WNW,301,0.0,0.0,86,0.00,,OVC019,0.00,VWS V14.01,2013-04-07 14:55:00,
2013-04-07 10:00:00,36.2,32.1,29.84,WNW,301,0.0,0.0,85,0.00,,OVC019,0.00,VWS V14.01,2013-04-07 15:00:00,
2013-04-07 10:05:00,36.3,32.2,29.84,WNW,301,0.0,0.0,85,0.00,,OVC019,0.00,VWS V14.01,2013-04-07 15:05:00,
2013-04-07 10:12:00,36.5,31.8,29.84,WNW,301,0.0,0.0,83,0.00,,OVC019,0.00,VWS V14.01,2013-04-07 15:12:00,
2013-04-07 10:15:00,34.1,31.8,29.82,WNW,301,0.0,4.0,91,0.00,,,0.00,VWS V15.00,2013-04-07 15:15:00,
2013-04-07 10:17:00,36.6,31.6,29.84,WNW,301,0.0,0.0,82,0.00,,OVC019,0.00,VWS V14.01,2013-04-07 15:17:00,
2013-04-07 10:22:00,36.8,31.8,29.84,WNW,301,0.0,0.0,82,0.00,,OVC019,0.00,VWS V14.01,2013-04-07 15:22:00,
2013-04-07 10:28:00,36.9,31.6,29.84,WNW,301,0.0,0.0,81,0.00,,OVC019,0.00,VWS V14.01,2013-04-07 15:28:00,
2013-04-07 10:30:00,34.3,32.0,29.82,WNW,301,0.0,0.0,91,0.00,,,0.00,VWS V15.00,2013-04-07 15:30:00,
2013-04-07 10:36:00,37.0,31.1,29.85,WNW,301,0.0,0.0,79,0.00,,OVC019,0.00,VWS V14.01,2013-04-07 15:36:00,
2013-04-07 10:42:00,37.2,31.6,29.85,WNW,301,0.0,0.0,80,0.00,,OVC019,0.00,VWS V14.01,2013-04-07 15:42:00,
2013-04-07 10:45:00,34.6,32.2,29.83,WNW,301,0.0,0.0,91,0.00,,,0.00,VWS V15.00,2013-04-07 15:45:00,
2013-04-07 10:47:00,37.3,31.4,29.86,WNW,301,0.0,0.0,79,0.00,,OVC019,0.00,VWS V14.01,2013-04-07 15:47:00,
2013-04-07 10:53:00,37.5,31.3,29.86,WNW,301,0.0,0.0,78,0.00,,OVC019,0.00,VWS V14.01,2013-04-07 15:53:00,
2013-04-07 10:58:00,37.3,30.1,29.86,WNW,301,0.0,0.0,75,0.00,,OVC019,0.00,VWS V14.01,2013-04-07 15:58:00,
2013-04-07 11:00:00,34.7,31.8,29.84,WNW,301,0.0,0.0,89,0.00,,,0.00,VWS V15.00,2013-04-07 16:00:00,
2013-04-07 11:03:00,37.3,30.4,29.86,WNW,301,0.0,0.0,76,0.00,,OVC019,0.00,VWS V14.01,2013-04-07 16:03:00,
2013-04-07 11:09:00,37.3,31.1,29.86,WNW,301,0.0,0.0,78,0.00,,OVC019,0.00,VWS V14.01,2013-04-07 16:09:00,
2013-04-07 11:14:00,37.3,30.8,29.87,WNW,301,0.0,0.0,77,0.00,,OVC019,0.00,VWS V14.01,2013-04-07 16:14:00,
2013-04-07 11:15:00,34.9,32.0,29.84,WNW,301,0.0,0.0,89,0.00,,,0.00,VWS V15.00,2013-04-07 16:15:00,
2013-04-07 11:21:00,37.3,30.8,29.87,WNW,301,0.0,0.0,77,0.00,,OVC019,0.00,VWS V14.01,2013-04-07 16:21:00,
2013-04-07 11:26:00,37.6,30.7,29.87,WNW,301,0.0,0.0,76,0.00,,OVC019,0.00,VWS V14.01,2013-04-07 16:26:00,
2013-04-07 11:30:00,35.2,32.0,29.84,WNW,301,0.0,0.0,88,0.00,,OVC016,0.00,VWS V15.00,2013-04-07 16:30:00,
2013-04-07 11:31:00,37.8,30.9,29.88,WNW,301,3.0,4.0,76,0.00,,OVC017,0.00,VWS V14.01,2013-04-07 16:31:00,
2013-04-07 11:36:00,37.8,30.6,29.88,WNW,301,0.0,4.0,75,0.00,,OVC017,0.00,VWS V14.01,2013-04-07 16:36:00,
2013-04-07 11:42:00,37.8,30.6,29.88,WNW,301,0.0,4.0,75,0.00,,OVC017,0.00,VWS V14.01,2013-04-07 16:42:00,
2013-04-07 11:45:00,35.6,32.1,29.84,WNW,301,0.0,0.0,87,0.00,,,0.00,VWS V15.00,2013-04-07 16:45:00,
2013-04-07 11:47:00,38.0,30.5,29.88,WNW,301,0.0,4.0,74,0.00,,OVC017,0.00,VWS V14.01,2013-04-07 16:47:00,
2013-04-07 11:53:00,38.2,31.6,29.88,WNW,301,0.0,4.0,77,0.00,,OVC017,0.00,VWS V14.01,2013-04-07 16:53:00,
2013-04-07 11:58:00,38.0,31.1,29.88,WNW,294,4.0,6.0,76,0.00,,OVC017,0.00,VWS V14.01,2013-04-07 16:58:00,
2013-04-07 12:00:00,36.2,32.1,29.84,WNW,301,0.0,0.0,85,0.00,,,0.00,VWS V15.00,2013-04-07 17:00:00,
2013-04-07 12:03:00,37.9,31.4,29.88,WNW,294,3.0,5.0,77,0.00,,OVC019,0.00,VWS V14.01,2013-04-07 17:03:00,
2013-04-07 12:10:00,37.8,30.9,29.88,WNW,294,3.0,6.0,76,0.00,,OVC019,0.00,VWS V14.01,2013-04-07 17:10:00,
2013-04-07 12:15:00,37.6,30.7,29.88,WNW,293,6.0,6.0,76,0.00,,OVC019,0.00,VWS V14.01,2013-04-07 17:15:00,
2013-04-07 12:21:00,37.8,31.2,29.88,WNW,293,4.0,6.0,77,0.00,,OVC019,0.00,VWS V14.01,2013-04-07 17:21:00,
2013-04-07 12:26:00,37.8,30.6,29.88,WNW,293,5.0,6.0,75,0.00,,OVC019,0.00,VWS V14.01,2013-04-07 17:26:00,
2013-04-07 12:30:00,36.9,31.6,29.85,WNW,301,0.0,0.0,81,0.00,,,0.00,VWS V15.00,2013-04-07 17:30:00,
2013-04-07 12:32:00,37.9,31.4,29.88,WNW,292,4.0,7.0,77,0.00,,OVC019,0.00,VWS V14.01,2013-04-07 17:32:00,
2013-04-07 12:37:00,37.8,31.2,29.88,WNW,291,4.0,7.0,77,0.00,,OVC019,0.00,VWS V14.01,2013-04-07 17:37:00,
2013-04-07 12:43:00,37.8,31.2,29.88,WNW,290,3.0,7.0,77,0.00,,OVC021,0.00,VWS V14.01,2013-04-07 17:43:00,
2013-04-07 12:45:00,37.3,31.4,29.86,WNW,301,0.0,0.0,79,0.00,,,0.00,VWS V15.00,2013-04-07 17:45:00,
2013-04-07 12:50:00,37.8,30.9,29.88,WNW,290,1.0,4.0,76,0.00,,OVC021,0.00,VWS V14.01,2013-04-07 17:50:00,
2013-04-07 12:55:00,38.0,31.1,29.88,WNW,290,5.0,6.0,76,0.00,,OVC021,0.00,VWS V14.01,2013-04-07 17:55:00,
2013-04-07 13:00:00,37.9,31.0,29.88,WNW,294,3.0,6.0,76,0.00,,,0.00,VWS V15.00,2013-04-07 18:00:00,
2013-04-07 13:01:00,38.0,31.1,29.88,West,272,7.0,7.0,76,0.00,,OVC021,0.00,VWS V14.01,2013-04-07 18:01:00,
2013-04-07 13:07:00,38.0,31.4,29.88,WSW,255,2.0,11.0,77,0.00,,OVC021,0.00,VWS V14.01,2013-04-07 18:07:00,
2013-04-07 13:12:00,38.2,31.3,29.88,WSW,248,5.0,11.0,76,0.00,,OVC021,0.00,VWS V14.01,2013-04-07 18:12:00,
2013-04-07 13:15:00,37.6,30.7,29.88,WNW,293,6.0,6.0,76,0.00,,,0.00,VWS V15.00,2013-04-07 18:15:00,
2013-04-07 13:17:00,38.2,31.3,29.86,WSW,248,4.0,6.0,76,0.00,,OVC021,0.00,VWS V14.01,2013-04-07 18:17:00,
2013-04-07 13:23:00,38.2,31.3,29.86,WSW,244,5.0,7.0,76,0.00,,OVC021,0.00,VWS V14.01,2013-04-07 18:23:00,
2013-04-07 13:28:00,38.3,31.1,29.86,WSW,244,3.0,7.0,75,0.00,,OVC021,0.00,VWS V14.01,2013-04-07 18:28:00,
2013-04-07 13:30:00,37.8,30.9,29.88,WNW,293,4.0,6.0,76,0.00,,,0.00,VWS V15.00,2013-04-07 18:30:00,
2013-04-07 13:33:00,38.3,31.1,29.86,WSW,242,5.0,6.0,75,0.00,,OVC014,0.00,VWS V14.01,2013-04-07 18:33:00,
2013-04-07 13:39:00,38.3,31.1,29.86,SW,231,7.0,9.0,75,0.00,,OVC014,0.00,VWS V14.01,2013-04-07 18:39:00,
2013-04-07 13:44:00,38.3,31.1,29.86,SW,227,7.0,9.0,75,0.00,,OVC021,0.00,VWS V14.01,2013-04-07 18:44:00,
2013-04-07 13:45:00,37.8,31.2,29.88,WNW,290,4.0,7.0,77,0.00,,,0.00,VWS V15.00,2013-04-07 18:45:00,
2013-04-07 13:50:00,38.5,31.3,29.86,SSW,213,4.0,9.0,75,0.00,,OVC021,0.00,VWS V14.01,2013-04-07 18:50:00,
2013-04-07 13:55:00,38.8,31.6,29.86,SSW,209,1.0,9.0,75,0.00,,OVC021,0.00,VWS V14.01,2013-04-07 18:55:00,
2013-04-07 14:00:00,38.9,31.0,29.86,SSW,209,3.0,9.0,73,0.00,,OVC021,0.00,VWS V14.01,2013-04-07 19:00:00,
2013-04-07 14:06:00,39.1,31.2,29.86,SSW,209,4.0,6.0,73,0.00,,OVC021,0.00,VWS V14.01,2013-04-07 19:06:00,
2013-04-07 14:11:00,39.3,31.0,29.86,SSW,208,9.0,9.0,72,0.00,,OVC021,0.00,VWS V14.01,2013-04-07 19:11:00,
2013-04-07 14:15:00,38.2,31.3,29.86,WSW,248,5.0,11.0,76,0.00,,,0.00,VWS V15.00,2013-04-07 19:15:00,
2013-04-07 14:18:00,39.6,31.0,29.85,SSW,206,4.0,7.0,71,0.00,,OVC021,0.00,VWS V14.01,2013-04-07 19:18:00,
2013-04-07 14:23:00,39.8,31.5,29.85,SSW,204,7.0,7.0,72,0.00,,OVC021,0.00,VWS V14.01,2013-04-07 19:23:00,
2013-04-07 14:29:00,39.9,31.6,29.85,SE,145,8.0,12.0,72,0.00,,OVC021,0.00,VWS V14.01,2013-04-07 19:29:00,
2013-04-07 14:30:00,38.3,31.1,29.86,WSW,243,4.0,7.0,75,0.00,,,0.00,VWS V15.00,2013-04-07 19:30:00,
2013-04-07 14:35:00,39.9,31.6,29.84,SE,145,6.0,9.0,72,0.00,,OVC021,0.00,VWS V14.01,2013-04-07 19:35:00,
2013-04-07 14:41:00,40.1,31.1,29.84,SE,145,6.0,9.0,70,0.00,,OVC021,0.00,VWS V14.01,2013-04-07 19:41:00,
2013-04-07 14:45:00,38.5,31.3,29.86,SW,223,7.0,9.0,75,0.00,,,0.00,VWS V15.00,2013-04-07 19:45:00,
2013-04-07 14:47:00,40.3,31.7,29.84,SE,146,2.0,6.0,71,0.00,,OVC021,0.00,VWS V14.01,2013-04-07 19:47:00,
2013-04-07 14:52:00,40.5,31.9,29.84,SE,146,3.0,10.0,71,0.00,,OVC021,0.00,VWS V14.01,2013-04-07 19:52:00,
2013-04-07 14:58:00,40.5,31.9,29.84,SE,145,3.0,10.0,71,0.00,,OVC021,0.00,VWS V14.01,2013-04-07 19:58:00,
2013-04-07 15:00:00,38.9,31.0,29.86,SSW,209,3.0,9.0,73,0.00,,,0.00,VWS V15.00,2013-04-07 20:00:00,
2013-04-07 15:03:00,40.3,31.7,29.83,SSE,153,11.0,12.0,71,0.00,,OVC021,0.00,VWS V14.01,2013-04-07 20:03:00,
2013-04-07 15:09:00,40.2,31.6,29.83,SSE,152,7.0,12.0,71,0.00,,OVC021,0.00,VWS V14.01,2013-04-07 20:09:00,
2013-04-07 15:14:00,40.2,31.9,29.83,SSE,152,5.0,12.0,72,0.00,,OVC021,0.00,VWS V14.01,2013-04-07 20:14:00,
2013-04-07 15:15:00,39.6,31.7,29.85,SSW,206,6.0,9.0,73,0.00,,,0.00,VWS V15.00,2013-04-07 20:15:00,
2013-04-07 15:19:00,40.3,32.0,29.83,SSE,151,3.0,9.0,72,0.00,,OVC021,0.00,VWS V14.01,2013-04-07 20:19:00,
2013-04-07 15:25:00,40.3,32.0,29.83,SE,145,7.0,11.0,72,0.00,,OVC021,0.00,VWS V14.01,2013-04-07 20:25:00,
2013-04-07 15:30:00,40.3,32.0,29.83,SE,145,10.0,13.0,72,0.00,,OVC021,0.00,VWS V14.01,2013-04-07 20:30:00,
2013-04-07 15:35:00,40.3,32.0,29.83,SE,145,4.0,11.0,72,0.00,,OVC021,0.00,VWS V14.01,2013-04-07 20:35:00,
2013-04-07 15:40:00,40.6,32.0,29.83,South,178,5.0,11.0,71,0.00,,OVC021,0.00,VWS V14.01,2013-04-07 20:40:00,
2013-04-07 15:45:00,40.2,31.6,29.84,SE,145,5.0,9.0,71,0.00,,,0.00,VWS V15.00,2013-04-07 20:45:00,
2013-04-07 15:47:00,40.9,31.9,29.82,SSE,168,10.0,11.0,70,0.00,,OVC021,0.00,VWS V14.01,2013-04-07 20:47:00,
2013-04-07 15:54:00,40.8,31.8,29.82,SSE,162,11.0,12.0,70,0.00,,OVC021,0.00,VWS V14.01,2013-04-07 20:54:00,
2013-04-07 15:59:00,40.9,31.9,29.82,SSE,155,7.0,12.0,70,0.00,,OVC021,0.00,VWS V14.01,2013-04-07 20:59:00,
2013-04-07 16:00:00,40.5,31.9,29.83,SE,145,6.0,10.0,71,0.00,,,0.00,VWS V15.00,2013-04-07 21:00:00,
2013-04-07 16:04:00,41.1,31.7,29.81,SSE,152,9.0,10.0,69,0.00,,OVC021,0.00,VWS V14.01,2013-04-07 21:04:00,
2013-04-07 16:10:00,41.2,32.5,29.81,SSE,161,6.0,12.0,71,0.00,,OVC021,0.00,VWS V14.01,2013-04-07 21:10:00,
2013-04-07 16:15:00,41.6,32.2,29.80,SSE,161,3.0,12.0,69,0.00,,OVC021,0.00,VWS V14.01,2013-04-07 21:15:00,
2013-04-07 16:20:00,42.3,32.5,29.80,SSE,152,8.0,10.0,68,0.00,,OVC021,0.00,VWS V14.01,2013-04-07 21:20:00,
2013-04-07 16:25:00,42.3,32.5,29.80,ESE,123,7.0,11.0,68,0.00,,OVC021,0.00,VWS V14.01,2013-04-07 21:25:00,
2013-04-07 16:30:00,42.2,32.4,29.80,SE,125,5.0,11.0,68,0.00,,OVC021,0.00,VWS V14.01,2013-04-07 21:30:00,
2013-04-07 16:35:00,42.2,32.8,29.80,SE,124,4.0,9.0,69,0.00,,OVC021,0.00,VWS V14.01,2013-04-07 21:35:00,
2013-04-07 16:41:00,42.2,32.4,29.80,SSE,149,10.0,10.0,68,0.00,,OVC021,0.00,VWS V14.01,2013-04-07 21:41:00,
2013-04-07 16:45:00,40.9,32.2,29.82,South,180,10.0,12.0,71,0.00,,,0.00,VWS V15.00,2013-04-07 21:45:00,
2013-04-07 16:47:00,42.6,32.0,29.79,SE,142,7.0,10.0,66,0.00,,OVC021,0.00,VWS V14.01,2013-04-07 21:47:00,
2013-04-07 16:53:00,42.3,31.8,29.79,SSE,154,6.0,10.0,66,0.00,,OVC021,0.00,VWS V14.01,2013-04-07 21:53:00,
2013-04-07 16:58:00,42.2,32.0,29.79,SSE,152,10.0,12.0,67,0.00,,OVC021,0.00,VWS V14.01,2013-04-07 21:58:00,
2013-04-07 17:00:00,40.9,31.5,29.81,SSE,151,8.0,12.0,69,0.00,,,0.00,VWS V15.00,2013-04-07 22:00:00,
2013-04-07 17:05:00,42.3,32.5,29.79,SSE,153,9.0,12.0,68,0.00,,OVC023,0.00,VWS V14.01,2013-04-07 22:05:00,
2013-04-07 17:10:00,42.5,32.7,29.79,SSE,156,9.0,12.0,68,0.00,,OVC023,0.00,VWS V14.01,2013-04-07 22:10:00,
2013-04-07 17:15:00,42.5,32.7,29.79,SSE,153,8.0,12.0,68,0.00,,OVC023,0.00,VWS V14.01,2013-04-07 22:15:00,
2013-04-07 17:22:00,42.5,32.3,29.79,SE,124,6.0,13.0,67,0.00,,OVC023,0.00,VWS V14.01,2013-04-07 22:22:00,
2013-04-07 17:27:00,42.5,32.3,29.79,SSE,148,10.0,14.0,67,0.00,,OVC023,0.00,VWS V14.01,2013-04-07 22:27:00,
2013-04-07 17:30:00,42.2,32.4,29.80,SE,125,5.0,11.0,68,0.00,,,0.00,VWS V15.00,2013-04-07 22:30:00,
2013-04-07 17:32:00,42.3,32.1,29.79,SE,136,14.0,14.0,67,0.00,,OVC023,0.00,VWS V14.01,2013-04-07 22:32:00,
2013-04-07 17:38:00,42.3,32.1,29.79,SE,125,4.0,14.0,67,0.00,,OVC023,0.00,VWS V14.01,2013-04-07 22:38:00,
2013-04-07 17:43:00,42.2,32.0,29.79,SE,143,11.0,16.0,67,0.00,,SCT027,0.00,VWS V14.01,2013-04-07 22:43:00,
2013-04-07 17:45:00,42.6,32.4,29.79,SE,134,9.0,11.0,67,0.00,,,0.00,VWS V15.00,2013-04-07 22:45:00,
2013-04-07 17:50:00,41.8,32.0,29.78,SE,146,9.0,14.0,68,0.00,,SCT027,0.00,VWS V14.01,2013-04-07 22:50:00,
2013-04-07 17:55:00,41.6,32.2,29.78,SE,145,13.0,14.0,69,0.00,,SCT027,0.00,VWS V14.01,2013-04-07 22:55:00,
2013-04-07 18:00:00,42.2,32.0,29.79,SSE,153,6.0,12.0,67,0.00,,,0.00,VWS V15.00,2013-04-07 23:00:00,
2013-04-07 18:01:00,41.6,31.8,29.79,SE,141,10.0,11.0,68,0.00,,CLR,0.00,VWS V14.01,2013-04-07 23:01:00,
2013-04-07 18:06:00,41.9,32.5,29.79,SE,145,9.0,14.0,69,0.00,,CLR,0.00,VWS V14.01,2013-04-07 23:06:00,
2013-04-07 18:11:00,42.1,32.3,29.79,SE,140,12.0,14.0,68,0.00,,CLR,0.00,VWS V14.01,2013-04-07 23:11:00,
2013-04-07 18:15:00,42.5,32.7,29.79,SSE,153,8.0,12.0,68,0.00,,,0.00,VWS V15.00,2013-04-07 23:15:00,
2013-04-07 18:16:00,42.2,32.8,29.79,SE,139,3.0,5.0,69,0.00,,CLR,0.00,VWS V14.01,2013-04-07 23:16:00,
2013-04-07 18:22:00,42.2,32.8,29.79,SE,131,4.0,7.0,69,0.00,,CLR,0.00,VWS V14.01,2013-04-07 23:22:00,
2013-04-07 18:27:00,42.2,32.8,29.79,SE,130,4.0,10.0,69,0.00,,CLR,0.00,VWS V14.01,2013-04-07 23:27:00,
2013-04-07 18:30:00,42.5,32.3,29.79,SE,130,9.0,14.0,67,0.00,,,0.00,VWS V15.00,2013-04-07 23:30:00,
2013-04-07 18:32:00,42.1,32.3,29.78,SE,129,3.0,9.0,68,0.00,,CLR,0.00,VWS V14.01,2013-04-07 23:32:00,
2013-04-07 18:38:00,41.8,32.4,29.78,SE,132,8.0,10.0,69,0.00,,CLR,0.00,VWS V14.01,2013-04-07 23:38:00,
2013-04-07 18:43:00,41.6,32.6,29.78,SE,134,5.0,12.0,70,0.00,,CLR,0.00,VWS V14.01,2013-04-07 23:43:00,
2013-04-07 18:45:00,42.1,32.0,29.78,SE,144,11.0,16.0,67,0.00,,,0.00,VWS V15.00,2013-04-07 23:45:00,
2013-04-07 18:48:00,41.3,31.9,29.79,SE,130,7.0,11.0,69,0.00,,CLR,0.00,VWS V14.01,2013-04-07 23:48:00,
2013-04-07 18:53:00,41.2,32.2,29.79,SE,130,10.0,11.0,70,0.00,,CLR,0.00,VWS V14.01,2013-04-07 23:53:00,
2013-04-07 18:58:00,41.1,32.1,29.79,SE,130,5.0,11.0,70,0.00,,CLR,0.00,VWS V14.01,2013-04-07 23:58:00,
2013-04-07 19:00:00,41.6,31.8,29.79,SE,140,6.0,15.0,68,0.00,,,0.00,VWS V15.00,2013-04-08 00:00:00,
2013-04-07 19:04:00,40.8,31.8,29.79,SE,130,5.0,10.0,70,0.00,,SCT026,0.00,VWS V14.01,2013-04-08 00:04:00,
2013-04-07 19:09:00,40.6,32.0,29.79,SE,131,5.0,10.0,71,0.00,,SCT026,0.00,VWS V14.01,2013-04-08 00:09:00,
2013-04-07 19:14:00,40.5,31.9,29.79,SE,132,9.0,10.0,71,0.00,,CLR,0.00,VWS V14.01,2013-04-08 00:14:00,
2013-04-07 19:15:00,42.2,32.8,29.79,SE,139,5.0,14.0,69,0.00,,,0.00,VWS V15.00,2013-04-08 00:15:00,
2013-04-07 19:20:00,40.3,31.7,29.79,SE,133,5.0,9.0,71,0.00,,CLR,0.00,VWS V14.01,2013-04-08 00:20:00,
2013-04-07 19:25:00,40.1,31.8,29.79,SE,133,4.0,9.0,72,0.00,,CLR,0.00,VWS V14.01,2013-04-08 00:25:00,
2013-04-07 19:30:00,39.8,31.5,29.79,SE,132,5.0,9.0,72,0.00,,CLR,0.00,VWS V14.01,2013-04-08 00:30:00,
2013-04-07 19:36:00,39.8,31.5,29.79,SE,132,4.0,9.0,72,0.00,,CLR,0.00,VWS V14.01,2013-04-08 00:36:00,
2013-04-07 19:41:00,39.5,31.6,29.79,SE,128,3.0,10.0,73,0.00,,CLR,0.00,VWS V14.01,2013-04-08 00:41:00,
2013-04-07 19:45:00,41.5,32.1,29.79,SE,133,6.0,12.0,69,0.00,,,0.00,VWS V15.00,2013-04-08 00:45:00,
2013-04-07 19:46:00,39.5,31.6,29.79,ESE,123,6.0,10.0,73,0.00,,CLR,0.00,VWS V14.01,2013-04-08 00:46:00,
2013-04-07 19:51:00,39.3,31.4,29.79,ESE,123,3.0,10.0,73,0.00,,CLR,0.00,VWS V14.01,2013-04-08 00:51:00,
2013-04-07 19:56:00,39.2,31.6,29.79,ESE,122,6.0,10.0,74,0.00,,CLR,0.00,VWS V14.01,2013-04-08 00:56:00,
2013-04-07 20:00:00,40.9,31.9,29.79,SE,130,9.0,11.0,70,0.00,,,0.00,VWS V15.00,2013-04-08 01:00:00,
2013-04-07 20:02:00,39.2,31.6,29.78,ESE,117,9.0,10.0,74,0.00,,CLR,0.00,VWS V14.01,2013-04-08 01:02:00,
2013-04-07 20:07:00,39.1,31.5,29.78,ESE,116,6.0,11.0,74,0.00,,CLR,0.00,VWS V14.01,2013-04-08 01:07:00,
2013-04-07 20:12:00,39.1,31.9,29.78,ESE,115,5.0,11.0,75,0.00,,CLR,0.00,VWS V14.01,2013-04-08 01:12:00,
2013-04-07 20:15:00,40.5,31.9,29.79,SE,134,6.0,11.0,71,0.00,,,0.00,VWS V15.00,2013-04-08 01:15:00,
2013-04-07 20:17:00,38.9,31.7,29.78,ESE,115,5.0,8.0,75,0.00,,CLR,0.00,VWS V14.01,2013-04-08 01:17:00,
2013-04-07 20:23:00,38.9,31.7,29.78,ESE,115,6.0,8.0,75,0.00,,CLR,0.00,VWS V14.01,2013-04-08 01:23:00,
2013-04-07 20:28:00,38.9,31.7,29.78,ESE,115,7.0,10.0,75,0.00,,CLR,0.00,VWS V14.01,2013-04-08 01:28:00,
2013-04-07 20:30:00,39.8,31.5,29.79,SE,132,5.0,9.0,72,0.00,,,0.00,VWS V15.00,2013-04-08 01:30:00,
2013-04-07 20:33:00,38.8,31.6,29.78,ESE,116,9.0,11.0,75,0.00,,CLR,0.00,VWS V14.01,2013-04-08 01:33:00,
2013-04-07 20:38:00,38.8,31.6,29.78,ESE,119,5.0,11.0,75,0.00,,CLR,0.00,VWS V14.01,2013-04-08 01:38:00,
2013-04-07 20:43:00,38.6,31.4,29.78,ESE,117,4.0,11.0,75,0.00,,CLR,0.00,VWS V14.01,2013-04-08 01:43:00,
2013-04-07 20:45:00,39.5,31.6,29.79,SE,125,10.0,10.0,73,0.00,,,0.00,VWS V15.00,2013-04-08 01:45:00,
2013-04-07 20:50:00,38.6,31.4,29.78,ESE,114,4.0,10.0,75,0.00,,CLR,0.00,VWS V14.01,2013-04-08 01:50:00,
2013-04-07 20:55:00,38.6,31.4,29.78,ESE,113,8.0,10.0,75,0.00,,CLR,0.00,VWS V14.01,2013-04-08 01:55:00,
2013-04-07 21:00:00,38.6,31.4,29.78,ESE,115,7.0,11.0,75,0.00,,CLR,0.00,VWS V14.01,2013-04-08 02:00:00,
2013-04-07 21:06:00,38.6,31.7,29.78,ESE,116,9.0,11.0,76,0.00,,SCT120,0.00,VWS V14.01,2013-04-08 02:06:00,
2013-04-07 21:11:00,38.6,31.7,29.78,ESE,118,7.0,13.0,76,0.00,,SCT120,0.00,VWS V14.01,2013-04-08 02:11:00,
2013-04-07 21:15:00,38.9,31.7,29.78,ESE,115,3.0,11.0,75,0.00,,,0.00,VWS V15.00,2013-04-08 02:15:00,
2013-04-07 21:17:00,38.5,31.6,29.78,ESE,122,4.0,13.0,76,0.00,,SCT120,0.00,VWS V14.01,2013-04-08 02:17:00,
2013-04-07 21:22:00,38.5,31.6,29.78,ESE,115,5.0,13.0,76,0.00,,SCT120,0.00,VWS V14.01,2013-04-08 02:22:00,
2013-04-07 21:27:00,38.5,31.6,29.78,ESE,116,9.0,13.0,76,0.00,,SCT120,0.00,VWS V14.01,2013-04-08 02:27:00,
2013-04-07 21:30:00,38.9,31.7,29.78,ESE,114,4.0,10.0,75,0.00,,,0.00,VWS V15.00,2013-04-08 02:30:00,
2013-04-07 21:33:00,38.6,31.7,29.78,ESE,113,6.0,11.0,76,0.00,,SCT120,0.00,VWS V14.01,2013-04-08 02:33:00,
2013-04-07 21:38:00,38.6,31.7,29.78,ESE,114,8.0,11.0,76,0.00,,SCT120,0.00,VWS V14.01,2013-04-08 02:38:00,
2013-04-07 21:44:00,38.6,31.7,29.78,ESE,116,5.0,11.0,76,0.00,,OVC110,0.00,VWS V14.01,2013-04-08 02:44:00,
2013-04-07 21:45:00,38.6,31.4,29.78,ESE,113,4.0,11.0,75,0.00,,,0.00,VWS V15.00,2013-04-08 02:45:00,
2013-04-07 21:51:00,38.6,32.0,29.77,ESE,116,5.0,10.0,77,0.00,,OVC110,0.00,VWS V14.01,2013-04-08 02:51:00,
2013-04-07 21:56:00,38.5,31.9,29.77,ESE,118,3.0,11.0,77,0.00,,OVC110,0.00,VWS V14.01,2013-04-08 02:56:00,
2013-04-07 22:00:00,38.6,31.4,29.78,ESE,115,7.0,11.0,75,0.00,,,0.00,VWS V15.00,2013-04-08 03:00:00,
2013-04-07 22:02:00,38.5,32.2,29.76,ESE,116,7.0,10.0,78,0.00,,OVC100,0.00,VWS V14.01,2013-04-08 03:02:00,
2013-04-07 22:07:00,38.5,32.2,29.76,ESE,118,5.0,11.0,78,0.00,,OVC100,0.00,VWS V14.01,2013-04-08 03:07:00,
2013-04-07 22:13:00,38.5,32.6,29.76,ESE,110,5.0,12.0,79,0.00,,OVC100,0.00,VWS V14.01,2013-04-08 03:13:00,
2013-04-07 22:15:00,38.6,31.7,29.78,ESE,120,6.0,13.0,76,0.00,,,0.00,VWS V15.00,2013-04-08 03:15:00,
2013-04-07 22:18:00,38.3,32.7,29.76,East,101,8.0,11.0,80,0.00,,OVC100,0.00,VWS V14.01,2013-04-08 03:18:00,
2013-04-07 22:24:00,38.2,33.2,29.76,ESE,102,8.0,12.0,82,0.00,,OVC100,0.00,VWS V14.01,2013-04-08 03:24:00,
2013-04-07 22:29:00,37.9,33.2,29.76,East,98,4.0,12.0,83,0.01,,OVC100,0.01,VWS V14.01,2013-04-08 03:29:00,
2013-04-07 22:30:00,38.6,31.7,29.78,ESE,114,6.0,13.0,76,0.00,,,0.00,VWS V15.00,2013-04-08 03:30:00,
2013-04-07 22:35:00,37.8,33.4,29.75,East,99,4.0,9.0,84,0.01,,OVC100,0.01,VWS V14.01,2013-04-08 03:35:00,
2013-04-07 22:41:00,37.6,33.8,29.75,East,99,7.0,9.0,86,0.01,,OVC100,0.01,VWS V14.01,2013-04-08 03:41:00,
2013-04-07 22:45:00,38.6,31.7,29.77,ESE,116,6.0,11.0,76,0.00,,,0.00,VWS V15.00,2013-04-08 03:45:00,
2013-04-07 23:00:00,38.5,32.2,29.76,ESE,116,10.0,11.0,78,0.00,,,0.00,VWS V15.00,2013-04-08 04:00:00,
2013-04-07 23:15:00,38.3,32.7,29.76,ESE,103,2.0,13.0,80,0.00,,OVC016,0.00,VWS V15.00,2013-04-08 04:15:00,
2013-04-07 23:30:00,37.9,33.2,29.75,East,98,4.0,12.0,83,0.01,,,0.01,VWS V15.00,2013-04-08 04:30:00,